Flugplatz Peine-Eddesse

Für EDVP sind keine METAR/TAF Berichte vorhanden.
Es werden die Flugwettermeldungen vom Flugplatz Braunschweig Wolfsburg in 23 km Entfernung angezeigt.

Bericht für EDVE

vom 07.12. um 17:50 UTC

Wind 4 kt aus 110°

Sichtweite 10 km oder mehr

gering bewölkt in 1700 ft

aufgebrochene Bewölkung in 4900 ft

Temperatur 1.0°C

Taupunkt 0.0°C

Luftfeuchtigkeit 93%

Luftdruck 1008 hPa

EDVE 071750Z 11004KT 9999 FEW017 BKN049 01/M00 Q1008

Prognose für EDVE

vom 07.12. um 17:00 UTC

Zwischen 18:00 UTC und 21:00 UTC

Wind 6 kt aus 130°

Sichtweite 10 km oder mehr

aufgelockert bewölkt in 1500 ft

aufgebrochene Bewölkung in 3000 ft

TAF EDVE 071700Z 0718/0721 13006KT 9999 SCT015 BKN030
Impressum